sensor_id;sensor_type;location;lat;lon;timestamp;P1;durP1;ratioP1;P2;durP2;ratioP2
46719;SDS011;32452;51.382;-0.002;2023-04-07T00:02:22;9.18;;;2.50;;
46719;SDS011;32452;51.382;-0.002;2023-04-07T00:05:08;9.80;;;3.35;;
46719;SDS011;32452;51.382;-0.002;2023-04-07T00:07:54;12.55;;;2.78;;
46719;SDS011;32452;51.382;-0.002;2023-04-07T00:10:41;8.05;;;3.00;;
46719;SDS011;32452;51.382;-0.002;2023-04-07T00:13:27;10.27;;;2.78;;
46719;SDS011;32452;51.382;-0.002;2023-04-07T00:16:14;7.15;;;3.05;;
46719;SDS011;32452;51.382;-0.002;2023-04-07T00:19:01;11.00;;;3.42;;
46719;SDS011;32452;51.382;-0.002;2023-04-07T00:21:46;11.07;;;3.33;;
46719;SDS011;32452;51.382;-0.002;2023-04-07T00:24:32;12.90;;;3.22;;
46719;SDS011;32452;51.382;-0.002;2023-04-07T00:27:18;22.63;;;3.58;;
46719;SDS011;32452;51.382;-0.002;2023-04-07T00:30:04;10.82;;;2.97;;
46719;SDS011;32452;51.382;-0.002;2023-04-07T00:32:51;7.40;;;3.22;;
46719;SDS011;32452;51.382;-0.002;2023-04-07T00:35:37;6.18;;;2.78;;
46719;SDS011;32452;51.382;-0.002;2023-04-07T00:38:23;10.65;;;2.55;;
46719;SDS011;32452;51.382;-0.002;2023-04-07T00:41:09;18.48;;;4.10;;
46719;SDS011;32452;51.382;-0.002;2023-04-07T00:43:54;9.95;;;3.65;;
46719;SDS011;32452;51.382;-0.002;2023-04-07T00:46:40;9.18;;;3.25;;
46719;SDS011;32452;51.382;-0.002;2023-04-07T00:49:26;11.65;;;3.03;;
46719;SDS011;32452;51.382;-0.002;2023-04-07T00:52:12;8.35;;;3.20;;
46719;SDS011;32452;51.382;-0.002;2023-04-07T00:54:59;8.30;;;2.80;;
46719;SDS011;32452;51.382;-0.002;2023-04-07T00:57:45;8.00;;;3.05;;
46719;SDS011;32452;51.382;-0.002;2023-04-07T01:00:31;11.65;;;3.17;;
46719;SDS011;32452;51.382;-0.002;2023-04-07T01:03:29;8.70;;;2.55;;
46719;SDS011;32452;51.382;-0.002;2023-04-07T01:06:19;8.25;;;2.28;;
46719;SDS011;32452;51.382;-0.002;2023-04-07T01:09:12;10.30;;;2.45;;
46719;SDS011;32452;51.382;-0.002;2023-04-07T01:12:07;7.43;;;2.28;;
46719;SDS011;32452;51.382;-0.002;2023-04-07T01:15:09;6.72;;;2.50;;
46719;SDS011;32452;51.382;-0.002;2023-04-07T01:18:00;6.15;;;2.80;;
46719;SDS011;32452;51.382;-0.002;2023-04-07T01:20:55;8.48;;;3.20;;
46719;SDS011;32452;51.382;-0.002;2023-04-07T01:27:12;7.90;;;2.53;;
46719;SDS011;32452;51.382;-0.002;2023-04-07T01:30:17;10.63;;;2.72;;
46719;SDS011;32452;51.382;-0.002;2023-04-07T01:33:04;13.02;;;2.92;;
46719;SDS011;32452;51.382;-0.002;2023-04-07T01:35:52;8.90;;;2.47;;
46719;SDS011;32452;51.382;-0.002;2023-04-07T01:38:38;13.18;;;3.40;;
46719;SDS011;32452;51.382;-0.002;2023-04-07T01:41:25;6.53;;;2.30;;
46719;SDS011;32452;51.382;-0.002;2023-04-07T01:44:12;6.25;;;2.50;;
46719;SDS011;32452;51.382;-0.002;2023-04-07T01:46:58;8.18;;;2.72;;
46719;SDS011;32452;51.382;-0.002;2023-04-07T01:49:45;12.07;;;2.97;;
46719;SDS011;32452;51.382;-0.002;2023-04-07T01:52:32;9.43;;;2.55;;
46719;SDS011;32452;51.382;-0.002;2023-04-07T01:55:21;7.18;;;2.28;;
46719;SDS011;32452;51.382;-0.002;2023-04-07T01:58:08;12.50;;;3.53;;
46719;SDS011;32452;51.382;-0.002;2023-04-07T02:00:54;7.05;;;2.15;;
46719;SDS011;32452;51.382;-0.002;2023-04-07T02:06:53;7.13;;;2.55;;
46719;SDS011;32452;51.382;-0.002;2023-04-07T02:09:43;9.30;;;2.35;;
46719;SDS011;32452;51.382;-0.002;2023-04-07T02:12:31;8.18;;;2.42;;
46719;SDS011;32452;51.382;-0.002;2023-04-07T02:15:18;7.43;;;2.30;;
46719;SDS011;32452;51.382;-0.002;2023-04-07T02:18:05;11.73;;;3.35;;
46719;SDS011;32452;51.382;-0.002;2023-04-07T02:20:54;6.93;;;2.80;;
46719;SDS011;32452;51.382;-0.002;2023-04-07T02:23:41;7.70;;;2.20;;
46719;SDS011;32452;51.382;-0.002;2023-04-07T02:26:26;6.85;;;2.30;;
46719;SDS011;32452;51.382;-0.002;2023-04-07T02:29:12;8.90;;;2.63;;
46719;SDS011;32452;51.382;-0.002;2023-04-07T02:31:57;16.23;;;2.83;;
46719;SDS011;32452;51.382;-0.002;2023-04-07T02:34:43;5.30;;;2.25;;
46719;SDS011;32452;51.382;-0.002;2023-04-07T02:37:29;12.57;;;2.47;;
46719;SDS011;32452;51.382;-0.002;2023-04-07T02:40:14;9.57;;;2.60;;
46719;SDS011;32452;51.382;-0.002;2023-04-07T02:43:00;7.60;;;2.22;;
46719;SDS011;32452;51.382;-0.002;2023-04-07T02:45:46;8.63;;;2.65;;
46719;SDS011;32452;51.382;-0.002;2023-04-07T02:48:31;11.55;;;2.85;;
46719;SDS011;32452;51.382;-0.002;2023-04-07T02:51:17;5.88;;;2.33;;
46719;SDS011;32452;51.382;-0.002;2023-04-07T02:54:02;7.40;;;2.05;;
46719;SDS011;32452;51.382;-0.002;2023-04-07T02:56:48;4.63;;;2.20;;
46719;SDS011;32452;51.382;-0.002;2023-04-07T02:59:34;5.63;;;1.80;;
46719;SDS011;32452;51.382;-0.002;2023-04-07T03:02:19;7.43;;;2.35;;
46719;SDS011;32452;51.382;-0.002;2023-04-07T03:05:05;13.38;;;3.70;;
46719;SDS011;32452;51.382;-0.002;2023-04-07T03:07:51;10.93;;;2.78;;
46719;SDS011;32452;51.382;-0.002;2023-04-07T03:10:37;18.05;;;3.17;;
46719;SDS011;32452;51.382;-0.002;2023-04-07T03:13:23;11.23;;;3.17;;
46719;SDS011;32452;51.382;-0.002;2023-04-07T03:16:09;5.47;;;2.00;;
46719;SDS011;32452;51.382;-0.002;2023-04-07T03:18:54;9.02;;;2.47;;
46719;SDS011;32452;51.382;-0.002;2023-04-07T03:21:40;10.80;;;2.28;;
46719;SDS011;32452;51.382;-0.002;2023-04-07T03:24:26;10.48;;;2.17;;
46719;SDS011;32452;51.382;-0.002;2023-04-07T03:27:11;8.82;;;1.95;;
46719;SDS011;32452;51.382;-0.002;2023-04-07T03:29:57;9.48;;;2.42;;
46719;SDS011;32452;51.382;-0.002;2023-04-07T03:32:42;11.18;;;2.40;;
46719;SDS011;32452;51.382;-0.002;2023-04-07T03:35:28;12.73;;;3.03;;
46719;SDS011;32452;51.382;-0.002;2023-04-07T03:38:14;9.30;;;2.80;;
46719;SDS011;32452;51.382;-0.002;2023-04-07T03:40:59;6.22;;;3.05;;
46719;SDS011;32452;51.382;-0.002;2023-04-07T03:43:44;8.98;;;3.22;;
46719;SDS011;32452;51.382;-0.002;2023-04-07T03:46:30;8.50;;;2.95;;
46719;SDS011;32452;51.382;-0.002;2023-04-07T03:49:16;5.82;;;2.15;;
46719;SDS011;32452;51.382;-0.002;2023-04-07T03:52:01;9.73;;;3.85;;
46719;SDS011;32452;51.382;-0.002;2023-04-07T03:54:47;7.13;;;2.80;;
46719;SDS011;32452;51.382;-0.002;2023-04-07T03:57:32;11.43;;;3.25;;
46719;SDS011;32452;51.382;-0.002;2023-04-07T04:00:18;10.57;;;2.75;;
46719;SDS011;32452;51.382;-0.002;2023-04-07T04:03:04;8.63;;;2.28;;
46719;SDS011;32452;51.382;-0.002;2023-04-07T04:05:50;9.90;;;2.70;;
46719;SDS011;32452;51.382;-0.002;2023-04-07T04:08:35;6.65;;;3.35;;
46719;SDS011;32452;51.382;-0.002;2023-04-07T04:11:21;11.70;;;2.90;;
46719;SDS011;32452;51.382;-0.002;2023-04-07T04:14:06;8.55;;;2.45;;
46719;SDS011;32452;51.382;-0.002;2023-04-07T04:16:52;13.55;;;2.28;;
46719;SDS011;32452;51.382;-0.002;2023-04-07T04:19:38;7.03;;;2.30;;
46719;SDS011;32452;51.382;-0.002;2023-04-07T04:22:23;8.05;;;2.53;;
46719;SDS011;32452;51.382;-0.002;2023-04-07T04:25:09;11.23;;;2.70;;
46719;SDS011;32452;51.382;-0.002;2023-04-07T04:27:55;5.90;;;2.35;;
46719;SDS011;32452;51.382;-0.002;2023-04-07T04:30:40;7.22;;;2.58;;
46719;SDS011;32452;51.382;-0.002;2023-04-07T04:33:26;7.82;;;2.92;;
46719;SDS011;32452;51.382;-0.002;2023-04-07T04:36:11;8.27;;;2.50;;
46719;SDS011;32452;51.382;-0.002;2023-04-07T04:38:57;15.02;;;2.55;;
46719;SDS011;32452;51.382;-0.002;2023-04-07T04:41:42;10.20;;;2.85;;
46719;SDS011;32452;51.382;-0.002;2023-04-07T04:44:28;7.95;;;2.83;;
46719;SDS011;32452;51.382;-0.002;2023-04-07T04:47:14;7.38;;;2.70;;
46719;SDS011;32452;51.382;-0.002;2023-04-07T04:50:00;10.07;;;2.97;;
46719;SDS011;32452;51.382;-0.002;2023-04-07T04:52:46;9.70;;;2.55;;
46719;SDS011;32452;51.382;-0.002;2023-04-07T04:55:31;12.13;;;3.47;;
46719;SDS011;32452;51.382;-0.002;2023-04-07T04:58:17;17.45;;;4.05;;
46719;SDS011;32452;51.382;-0.002;2023-04-07T05:01:04;10.40;;;4.60;;
46719;SDS011;32452;51.382;-0.002;2023-04-07T05:03:50;8.40;;;3.17;;
46719;SDS011;32452;51.382;-0.002;2023-04-07T05:06:36;12.10;;;3.42;;
46719;SDS011;32452;51.382;-0.002;2023-04-07T05:09:22;10.55;;;3.63;;
46719;SDS011;32452;51.382;-0.002;2023-04-07T05:12:07;11.30;;;3.33;;
46719;SDS011;32452;51.382;-0.002;2023-04-07T05:14:53;10.20;;;3.08;;
46719;SDS011;32452;51.382;-0.002;2023-04-07T05:17:40;8.35;;;2.90;;
46719;SDS011;32452;51.382;-0.002;2023-04-07T05:20:25;11.20;;;3.08;;
46719;SDS011;32452;51.382;-0.002;2023-04-07T05:23:11;8.02;;;3.88;;
46719;SDS011;32452;51.382;-0.002;2023-04-07T05:25:56;8.82;;;3.35;;
46719;SDS011;32452;51.382;-0.002;2023-04-07T05:28:42;11.70;;;3.60;;
46719;SDS011;32452;51.382;-0.002;2023-04-07T05:31:28;12.32;;;4.93;;
46719;SDS011;32452;51.382;-0.002;2023-04-07T05:34:13;10.52;;;3.08;;
46719;SDS011;32452;51.382;-0.002;2023-04-07T05:36:59;10.75;;;3.65;;
46719;SDS011;32452;51.382;-0.002;2023-04-07T05:39:45;11.70;;;4.13;;
46719;SDS011;32452;51.382;-0.002;2023-04-07T05:42:30;10.55;;;3.58;;
46719;SDS011;32452;51.382;-0.002;2023-04-07T05:45:16;11.57;;;3.30;;
46719;SDS011;32452;51.382;-0.002;2023-04-07T05:48:01;9.63;;;3.70;;
46719;SDS011;32452;51.382;-0.002;2023-04-07T05:50:47;13.68;;;3.45;;
46719;SDS011;32452;51.382;-0.002;2023-04-07T05:53:33;13.27;;;3.50;;
46719;SDS011;32452;51.382;-0.002;2023-04-07T05:56:18;11.25;;;3.30;;
46719;SDS011;32452;51.382;-0.002;2023-04-07T05:59:05;16.77;;;3.75;;
46719;SDS011;32452;51.382;-0.002;2023-04-07T06:01:51;8.88;;;3.13;;
46719;SDS011;32452;51.382;-0.002;2023-04-07T06:04:36;13.15;;;3.45;;
46719;SDS011;32452;51.382;-0.002;2023-04-07T06:07:23;9.88;;;3.28;;
46719;SDS011;32452;51.382;-0.002;2023-04-07T06:10:09;15.23;;;3.80;;
46719;SDS011;32452;51.382;-0.002;2023-04-07T06:12:55;13.60;;;3.85;;
46719;SDS011;32452;51.382;-0.002;2023-04-07T06:15:42;8.85;;;3.05;;
46719;SDS011;32452;51.382;-0.002;2023-04-07T06:18:28;10.05;;;3.10;;
46719;SDS011;32452;51.382;-0.002;2023-04-07T06:21:13;16.10;;;3.25;;
46719;SDS011;32452;51.382;-0.002;2023-04-07T06:23:59;8.65;;;2.65;;
46719;SDS011;32452;51.382;-0.002;2023-04-07T06:26:44;12.35;;;2.95;;
46719;SDS011;32452;51.382;-0.002;2023-04-07T06:29:31;11.18;;;3.70;;
46719;SDS011;32452;51.382;-0.002;2023-04-07T06:32:17;8.70;;;3.97;;
46719;SDS011;32452;51.382;-0.002;2023-04-07T06:35:02;10.68;;;2.80;;
46719;SDS011;32452;51.382;-0.002;2023-04-07T06:37:48;17.10;;;3.40;;
46719;SDS011;32452;51.382;-0.002;2023-04-07T06:40:33;13.13;;;2.60;;
46719;SDS011;32452;51.382;-0.002;2023-04-07T06:43:19;10.68;;;3.03;;
46719;SDS011;32452;51.382;-0.002;2023-04-07T06:46:05;11.57;;;3.70;;
46719;SDS011;32452;51.382;-0.002;2023-04-07T06:48:51;9.80;;;2.40;;
46719;SDS011;32452;51.382;-0.002;2023-04-07T06:51:36;8.45;;;2.33;;
46719;SDS011;32452;51.382;-0.002;2023-04-07T06:54:21;9.65;;;2.40;;
46719;SDS011;32452;51.382;-0.002;2023-04-07T06:57:07;11.13;;;2.55;;
46719;SDS011;32452;51.382;-0.002;2023-04-07T06:59:56;9.30;;;2.75;;
46719;SDS011;32452;51.382;-0.002;2023-04-07T07:02:41;11.75;;;2.45;;
46719;SDS011;32452;51.382;-0.002;2023-04-07T07:05:27;10.07;;;2.53;;
46719;SDS011;32452;51.382;-0.002;2023-04-07T07:08:13;9.65;;;2.40;;
46719;SDS011;32452;51.382;-0.002;2023-04-07T07:10:58;7.20;;;2.40;;
46719;SDS011;32452;51.382;-0.002;2023-04-07T07:13:44;8.35;;;2.15;;
46719;SDS011;32452;51.382;-0.002;2023-04-07T07:16:30;8.18;;;2.55;;
46719;SDS011;32452;51.382;-0.002;2023-04-07T07:19:17;8.07;;;2.25;;
46719;SDS011;32452;51.382;-0.002;2023-04-07T07:22:02;10.18;;;2.78;;
46719;SDS011;32452;51.382;-0.002;2023-04-07T07:24:48;9.38;;;2.83;;
46719;SDS011;32452;51.382;-0.002;2023-04-07T07:27:35;13.50;;;3.08;;
46719;SDS011;32452;51.382;-0.002;2023-04-07T07:30:21;10.77;;;3.10;;
46719;SDS011;32452;51.382;-0.002;2023-04-07T07:33:07;11.82;;;3.35;;
46719;SDS011;32452;51.382;-0.002;2023-04-07T07:35:54;11.13;;;3.00;;
46719;SDS011;32452;51.382;-0.002;2023-04-07T07:38:40;8.65;;;2.92;;
46719;SDS011;32452;51.382;-0.002;2023-04-07T07:41:25;12.98;;;3.22;;
46719;SDS011;32452;51.382;-0.002;2023-04-07T07:44:11;11.75;;;3.38;;
46719;SDS011;32452;51.382;-0.002;2023-04-07T07:46:56;9.18;;;2.70;;
46719;SDS011;32452;51.382;-0.002;2023-04-07T07:49:42;14.07;;;3.55;;
46719;SDS011;32452;51.382;-0.002;2023-04-07T07:52:27;10.32;;;3.38;;
46719;SDS011;32452;51.382;-0.002;2023-04-07T07:55:13;11.07;;;2.92;;
46719;SDS011;32452;51.382;-0.002;2023-04-07T07:57:59;10.30;;;2.80;;
46719;SDS011;32452;51.382;-0.002;2023-04-07T08:00:45;10.63;;;3.20;;
46719;SDS011;32452;51.382;-0.002;2023-04-07T08:03:30;10.25;;;3.00;;
46719;SDS011;32452;51.382;-0.002;2023-04-07T08:06:16;11.15;;;3.75;;
46719;SDS011;32452;51.382;-0.002;2023-04-07T08:09:02;9.32;;;3.08;;
46719;SDS011;32452;51.382;-0.002;2023-04-07T08:11:48;11.82;;;2.65;;
46719;SDS011;32452;51.382;-0.002;2023-04-07T08:14:35;8.70;;;3.28;;
46719;SDS011;32452;51.382;-0.002;2023-04-07T08:17:20;11.15;;;3.10;;
46719;SDS011;32452;51.382;-0.002;2023-04-07T08:20:06;12.45;;;3.00;;
46719;SDS011;32452;51.382;-0.002;2023-04-07T08:22:52;10.25;;;2.92;;
46719;SDS011;32452;51.382;-0.002;2023-04-07T08:25:37;9.80;;;3.42;;
46719;SDS011;32452;51.382;-0.002;2023-04-07T08:28:25;8.10;;;2.53;;
46719;SDS011;32452;51.382;-0.002;2023-04-07T08:31:11;8.68;;;2.92;;
46719;SDS011;32452;51.382;-0.002;2023-04-07T08:33:57;10.93;;;3.55;;
46719;SDS011;32452;51.382;-0.002;2023-04-07T08:36:43;12.90;;;3.70;;
46719;SDS011;32452;51.382;-0.002;2023-04-07T08:39:29;8.35;;;2.88;;
46719;SDS011;32452;51.382;-0.002;2023-04-07T08:42:14;9.63;;;3.20;;
46719;SDS011;32452;51.382;-0.002;2023-04-07T08:45:03;10.80;;;3.42;;
46719;SDS011;32452;51.382;-0.002;2023-04-07T08:47:51;10.77;;;3.65;;
46719;SDS011;32452;51.382;-0.002;2023-04-07T08:50:41;11.32;;;2.92;;
46719;SDS011;32452;51.382;-0.002;2023-04-07T08:53:32;10.68;;;3.03;;
46719;SDS011;32452;51.382;-0.002;2023-04-07T08:56:25;11.07;;;2.80;;
46719;SDS011;32452;51.382;-0.002;2023-04-07T08:59:12;8.70;;;3.17;;
46719;SDS011;32452;51.382;-0.002;2023-04-07T09:01:59;9.43;;;2.90;;
46719;SDS011;32452;51.382;-0.002;2023-04-07T09:04:45;12.45;;;3.00;;
46719;SDS011;32452;51.382;-0.002;2023-04-07T09:07:32;13.57;;;3.53;;
46719;SDS011;32452;51.382;-0.002;2023-04-07T09:10:19;10.88;;;3.00;;
46719;SDS011;32452;51.382;-0.002;2023-04-07T09:13:05;11.82;;;3.20;;
46719;SDS011;32452;51.382;-0.002;2023-04-07T09:15:51;12.68;;;4.15;;
46719;SDS011;32452;51.382;-0.002;2023-04-07T09:18:36;9.95;;;3.00;;
46719;SDS011;32452;51.382;-0.002;2023-04-07T09:21:22;8.38;;;3.22;;
46719;SDS011;32452;51.382;-0.002;2023-04-07T09:24:28;8.23;;;3.15;;
46719;SDS011;32452;51.382;-0.002;2023-04-07T09:27:17;7.65;;;2.90;;
46719;SDS011;32452;51.382;-0.002;2023-04-07T09:30:13;11.55;;;3.33;;
46719;SDS011;32452;51.382;-0.002;2023-04-07T09:33:00;11.98;;;3.85;;
46719;SDS011;32452;51.382;-0.002;2023-04-07T09:35:52;16.58;;;4.85;;
46719;SDS011;32452;51.382;-0.002;2023-04-07T09:38:38;9.15;;;3.38;;
46719;SDS011;32452;51.382;-0.002;2023-04-07T09:41:26;6.45;;;2.58;;
46719;SDS011;32452;51.382;-0.002;2023-04-07T09:44:12;7.68;;;2.75;;
46719;SDS011;32452;51.382;-0.002;2023-04-07T09:46:59;8.05;;;2.83;;
46719;SDS011;32452;51.382;-0.002;2023-04-07T09:49:49;10.63;;;3.72;;
46719;SDS011;32452;51.382;-0.002;2023-04-07T09:52:52;6.85;;;2.20;;
46719;SDS011;32452;51.382;-0.002;2023-04-07T09:55:38;10.98;;;2.75;;
46719;SDS011;32452;51.382;-0.002;2023-04-07T09:58:27;6.43;;;1.83;;
46719;SDS011;32452;51.382;-0.002;2023-04-07T10:01:14;7.50;;;2.60;;
46719;SDS011;32452;51.382;-0.002;2023-04-07T10:04:03;5.30;;;2.00;;
46719;SDS011;32452;51.382;-0.002;2023-04-07T10:06:51;4.05;;;2.13;;
46719;SDS011;32452;51.382;-0.002;2023-04-07T10:09:40;8.45;;;2.65;;
46719;SDS011;32452;51.382;-0.002;2023-04-07T10:12:26;6.20;;;2.28;;
46719;SDS011;32452;51.382;-0.002;2023-04-07T10:15:15;7.28;;;2.20;;
46719;SDS011;32452;51.382;-0.002;2023-04-07T10:18:01;7.03;;;2.35;;
46719;SDS011;32452;51.382;-0.002;2023-04-07T10:20:50;8.95;;;2.92;;
46719;SDS011;32452;51.382;-0.002;2023-04-07T10:27:02;7.10;;;2.50;;
46719;SDS011;32452;51.382;-0.002;2023-04-07T10:29:52;6.13;;;1.83;;
46719;SDS011;32452;51.382;-0.002;2023-04-07T10:32:48;5.15;;;1.50;;
46719;SDS011;32452;51.382;-0.002;2023-04-07T10:39:36;5.45;;;1.83;;
46719;SDS011;32452;51.382;-0.002;2023-04-07T10:41:55;4.45;;;1.58;;
46719;SDS011;32452;51.382;-0.002;2023-04-07T10:44:46;7.75;;;2.10;;
46719;SDS011;32452;51.382;-0.002;2023-04-07T10:47:34;5.10;;;1.75;;
46719;SDS011;32452;51.382;-0.002;2023-04-07T10:50:40;7.85;;;1.85;;
46719;SDS011;32452;51.382;-0.002;2023-04-07T10:53:26;5.63;;;1.70;;
46719;SDS011;32452;51.382;-0.002;2023-04-07T10:56:11;3.95;;;1.02;;
46719;SDS011;32452;51.382;-0.002;2023-04-07T10:59:31;3.20;;;1.17;;
46719;SDS011;32452;51.382;-0.002;2023-04-07T11:04:57;3.13;;;1.13;;
46719;SDS011;32452;51.382;-0.002;2023-04-07T11:07:44;3.10;;;1.35;;
46719;SDS011;32452;51.382;-0.002;2023-04-07T11:10:33;4.05;;;1.40;;
46719;SDS011;32452;51.382;-0.002;2023-04-07T11:13:19;5.07;;;1.65;;
46719;SDS011;32452;51.382;-0.002;2023-04-07T11:16:05;4.18;;;1.55;;
46719;SDS011;32452;51.382;-0.002;2023-04-07T11:18:51;4.97;;;1.23;;
46719;SDS011;32452;51.382;-0.002;2023-04-07T11:21:41;4.15;;;0.88;;
46719;SDS011;32452;51.382;-0.002;2023-04-07T11:24:33;2.53;;;1.00;;
46719;SDS011;32452;51.382;-0.002;2023-04-07T11:27:23;4.55;;;1.13;;
46719;SDS011;32452;51.382;-0.002;2023-04-07T11:30:09;6.78;;;1.10;;
46719;SDS011;32452;51.382;-0.002;2023-04-07T11:32:55;4.65;;;1.48;;
46719;SDS011;32452;51.382;-0.002;2023-04-07T11:35:48;4.65;;;1.15;;
46719;SDS011;32452;51.382;-0.002;2023-04-07T11:38:36;4.00;;;0.77;;
46719;SDS011;32452;51.382;-0.002;2023-04-07T11:41:23;3.97;;;0.95;;
46719;SDS011;32452;51.382;-0.002;2023-04-07T11:44:11;3.45;;;1.02;;
46719;SDS011;32452;51.382;-0.002;2023-04-07T11:46:58;3.92;;;0.95;;
46719;SDS011;32452;51.382;-0.002;2023-04-07T11:49:47;4.75;;;1.10;;
46719;SDS011;32452;51.382;-0.002;2023-04-07T11:52:40;4.38;;;1.20;;
46719;SDS011;32452;51.382;-0.002;2023-04-07T11:55:30;2.50;;;1.00;;
46719;SDS011;32452;51.382;-0.002;2023-04-07T11:58:16;3.55;;;1.10;;
46719;SDS011;32452;51.382;-0.002;2023-04-07T12:01:03;4.05;;;1.17;;
46719;SDS011;32452;51.382;-0.002;2023-04-07T12:03:56;2.67;;;1.05;;
46719;SDS011;32452;51.382;-0.002;2023-04-07T12:06:47;2.97;;;1.20;;
46719;SDS011;32452;51.382;-0.002;2023-04-07T12:09:33;3.70;;;1.08;;
46719;SDS011;32452;51.382;-0.002;2023-04-07T12:12:25;2.88;;;1.27;;
46719;SDS011;32452;51.382;-0.002;2023-04-07T12:15:14;3.80;;;1.02;;
46719;SDS011;32452;51.382;-0.002;2023-04-07T12:18:00;4.35;;;0.82;;
46719;SDS011;32452;51.382;-0.002;2023-04-07T12:20:47;4.75;;;1.10;;
46719;SDS011;32452;51.382;-0.002;2023-04-07T12:23:36;3.35;;;1.42;;
46719;SDS011;32452;51.382;-0.002;2023-04-07T12:26:21;4.88;;;1.15;;
46719;SDS011;32452;51.382;-0.002;2023-04-07T12:29:07;5.20;;;0.82;;
46719;SDS011;32452;51.382;-0.002;2023-04-07T12:31:53;2.40;;;0.80;;
46719;SDS011;32452;51.382;-0.002;2023-04-07T12:34:39;2.40;;;0.85;;
46719;SDS011;32452;51.382;-0.002;2023-04-07T12:37:24;4.47;;;1.05;;
46719;SDS011;32452;51.382;-0.002;2023-04-07T12:40:10;3.35;;;1.05;;
46719;SDS011;32452;51.382;-0.002;2023-04-07T12:42:56;5.68;;;1.50;;
46719;SDS011;32452;51.382;-0.002;2023-04-07T12:45:42;3.78;;;1.90;;
46719;SDS011;32452;51.382;-0.002;2023-04-07T12:48:27;3.10;;;1.08;;
46719;SDS011;32452;51.382;-0.002;2023-04-07T12:51:13;1.98;;;0.70;;
46719;SDS011;32452;51.382;-0.002;2023-04-07T12:54:00;2.15;;;1.08;;
46719;SDS011;32452;51.382;-0.002;2023-04-07T12:56:46;1.83;;;0.70;;
46719;SDS011;32452;51.382;-0.002;2023-04-07T12:59:31;3.28;;;1.00;;
46719;SDS011;32452;51.382;-0.002;2023-04-07T13:02:16;3.72;;;0.98;;
46719;SDS011;32452;51.382;-0.002;2023-04-07T13:05:03;4.50;;;1.17;;
46719;SDS011;32452;51.382;-0.002;2023-04-07T13:07:49;4.60;;;0.88;;
46719;SDS011;32452;51.382;-0.002;2023-04-07T13:10:35;1.92;;;1.05;;
46719;SDS011;32452;51.382;-0.002;2023-04-07T13:13:21;3.80;;;0.85;;
46719;SDS011;32452;51.382;-0.002;2023-04-07T13:16:07;3.80;;;1.00;;
46719;SDS011;32452;51.382;-0.002;2023-04-07T13:18:52;3.53;;;1.08;;
46719;SDS011;32452;51.382;-0.002;2023-04-07T13:21:39;3.47;;;1.13;;
46719;SDS011;32452;51.382;-0.002;2023-04-07T13:24:31;4.55;;;1.10;;
46719;SDS011;32452;51.382;-0.002;2023-04-07T13:27:17;2.03;;;0.80;;
46719;SDS011;32452;51.382;-0.002;2023-04-07T13:30:03;3.55;;;1.05;;
46719;SDS011;32452;51.382;-0.002;2023-04-07T13:32:50;1.92;;;1.20;;
46719;SDS011;32452;51.382;-0.002;2023-04-07T13:35:36;4.13;;;1.10;;
46719;SDS011;32452;51.382;-0.002;2023-04-07T13:38:22;3.97;;;0.88;;
46719;SDS011;32452;51.382;-0.002;2023-04-07T13:41:08;3.45;;;1.10;;
46719;SDS011;32452;51.382;-0.002;2023-04-07T13:43:54;2.47;;;1.13;;
46719;SDS011;32452;51.382;-0.002;2023-04-07T13:46:40;2.03;;;0.88;;
46719;SDS011;32452;51.382;-0.002;2023-04-07T13:49:26;3.20;;;0.88;;
46719;SDS011;32452;51.382;-0.002;2023-04-07T13:52:11;0.90;;;0.75;;
46719;SDS011;32452;51.382;-0.002;2023-04-07T13:54:57;1.92;;;0.70;;
46719;SDS011;32452;51.382;-0.002;2023-04-07T13:57:43;3.25;;;0.93;;
46719;SDS011;32452;51.382;-0.002;2023-04-07T14:00:28;1.75;;;0.80;;
46719;SDS011;32452;51.382;-0.002;2023-04-07T14:03:14;8.02;;;1.25;;
46719;SDS011;32452;51.382;-0.002;2023-04-07T14:06:01;4.30;;;1.20;;
46719;SDS011;32452;51.382;-0.002;2023-04-07T14:08:46;3.53;;;1.02;;
46719;SDS011;32452;51.382;-0.002;2023-04-07T14:11:33;3.70;;;0.90;;
46719;SDS011;32452;51.382;-0.002;2023-04-07T14:14:18;3.35;;;1.48;;
46719;SDS011;32452;51.382;-0.002;2023-04-07T14:17:04;2.90;;;1.00;;
46719;SDS011;32452;51.382;-0.002;2023-04-07T14:19:50;5.43;;;0.93;;
46719;SDS011;32452;51.382;-0.002;2023-04-07T14:22:35;2.65;;;1.10;;
46719;SDS011;32452;51.382;-0.002;2023-04-07T14:25:21;3.75;;;0.70;;
46719;SDS011;32452;51.382;-0.002;2023-04-07T14:28:07;3.53;;;0.90;;
46719;SDS011;32452;51.382;-0.002;2023-04-07T14:30:53;2.55;;;0.80;;
46719;SDS011;32452;51.382;-0.002;2023-04-07T14:33:39;3.60;;;1.15;;
46719;SDS011;32452;51.382;-0.002;2023-04-07T14:36:25;5.78;;;1.10;;
46719;SDS011;32452;51.382;-0.002;2023-04-07T14:39:11;5.30;;;1.10;;
46719;SDS011;32452;51.382;-0.002;2023-04-07T14:41:57;3.30;;;1.50;;
46719;SDS011;32452;51.382;-0.002;2023-04-07T14:44:43;2.88;;;1.02;;
46719;SDS011;32452;51.382;-0.002;2023-04-07T14:47:28;3.63;;;1.02;;
46719;SDS011;32452;51.382;-0.002;2023-04-07T14:50:15;2.60;;;0.70;;
46719;SDS011;32452;51.382;-0.002;2023-04-07T14:53:00;2.03;;;0.88;;
46719;SDS011;32452;51.382;-0.002;2023-04-07T14:55:47;3.33;;;1.15;;
46719;SDS011;32452;51.382;-0.002;2023-04-07T14:58:32;3.95;;;0.98;;
46719;SDS011;32452;51.382;-0.002;2023-04-07T15:01:21;5.47;;;1.05;;
46719;SDS011;32452;51.382;-0.002;2023-04-07T15:04:07;1.50;;;0.63;;
46719;SDS011;32452;51.382;-0.002;2023-04-07T15:06:52;2.92;;;0.77;;
46719;SDS011;32452;51.382;-0.002;2023-04-07T15:09:39;5.05;;;1.30;;
46719;SDS011;32452;51.382;-0.002;2023-04-07T15:12:26;2.38;;;1.00;;
46719;SDS011;32452;51.382;-0.002;2023-04-07T15:15:14;5.40;;;1.40;;
46719;SDS011;32452;51.382;-0.002;2023-04-07T15:18:00;2.65;;;0.77;;
46719;SDS011;32452;51.382;-0.002;2023-04-07T15:20:48;1.50;;;0.80;;
46719;SDS011;32452;51.382;-0.002;2023-04-07T15:23:35;3.25;;;1.08;;
46719;SDS011;32452;51.382;-0.002;2023-04-07T15:26:21;1.63;;;0.70;;
46719;SDS011;32452;51.382;-0.002;2023-04-07T15:29:08;3.58;;;0.90;;
46719;SDS011;32452;51.382;-0.002;2023-04-07T15:31:54;3.35;;;1.00;;
46719;SDS011;32452;51.382;-0.002;2023-04-07T15:34:40;3.78;;;1.05;;
46719;SDS011;32452;51.382;-0.002;2023-04-07T15:37:25;1.70;;;0.70;;
46719;SDS011;32452;51.382;-0.002;2023-04-07T15:40:11;3.30;;;1.35;;
46719;SDS011;32452;51.382;-0.002;2023-04-07T15:42:56;2.03;;;1.05;;
46719;SDS011;32452;51.382;-0.002;2023-04-07T15:45:42;4.50;;;0.90;;
46719;SDS011;32452;51.382;-0.002;2023-04-07T15:48:29;1.92;;;1.00;;
46719;SDS011;32452;51.382;-0.002;2023-04-07T15:51:15;5.82;;;1.30;;
46719;SDS011;32452;51.382;-0.002;2023-04-07T15:54:00;3.80;;;1.20;;
46719;SDS011;32452;51.382;-0.002;2023-04-07T15:56:46;3.53;;;0.93;;
46719;SDS011;32452;51.382;-0.002;2023-04-07T15:59:32;3.05;;;1.13;;
46719;SDS011;32452;51.382;-0.002;2023-04-07T16:02:19;2.38;;;0.85;;
46719;SDS011;32452;51.382;-0.002;2023-04-07T16:05:05;4.95;;;1.10;;
46719;SDS011;32452;51.382;-0.002;2023-04-07T16:07:52;5.05;;;1.02;;
46719;SDS011;32452;51.382;-0.002;2023-04-07T16:10:37;3.08;;;0.95;;
46719;SDS011;32452;51.382;-0.002;2023-04-07T16:13:23;3.70;;;1.10;;
46719;SDS011;32452;51.382;-0.002;2023-04-07T16:16:08;2.25;;;0.90;;
46719;SDS011;32452;51.382;-0.002;2023-04-07T16:18:54;5.13;;;1.17;;
46719;SDS011;32452;51.382;-0.002;2023-04-07T16:21:40;1.65;;;0.80;;
46719;SDS011;32452;51.382;-0.002;2023-04-07T16:24:25;1.95;;;1.02;;
46719;SDS011;32452;51.382;-0.002;2023-04-07T16:27:11;4.45;;;1.35;;
46719;SDS011;32452;51.382;-0.002;2023-04-07T16:29:57;3.05;;;0.98;;
46719;SDS011;32452;51.382;-0.002;2023-04-07T16:32:43;4.00;;;1.00;;
46719;SDS011;32452;51.382;-0.002;2023-04-07T16:35:29;1.92;;;0.85;;
46719;SDS011;32452;51.382;-0.002;2023-04-07T16:38:16;2.03;;;0.80;;
46719;SDS011;32452;51.382;-0.002;2023-04-07T16:41:01;2.53;;;0.95;;
46719;SDS011;32452;51.382;-0.002;2023-04-07T16:43:49;2.97;;;1.10;;